Sizerock, KY (41762)

3:46 PM EDT on March 28, 2015 (GMT -0400)
KKYJACKS3 | | Change Station
CLOSE
Current Station
Personal Weather Station
Location: Talbert, KY
Elevation: 994 ft
Nearby Weather Stations

Elev 994 ft 37.41 °N, 83.42 °W | Updated 1 minute ago

Clear
Clear
40.1 °F
Feels Like 40 °F
N
0.0
Wind Variable Wind from North
Gusts 0.0 mph

Today
High -- | Low -- °F
--% Chance of Precip.
Yesterday
High -- | Low -- °F
Precip. -- in
7:25 AM 7:52 PM
Waxing Gibbous, 65% visible
Pressure 30.22 in
Visibility 10.0 miles
Clouds Clear
Windchill 40 °F
Dew Point 10 °F
Humidity 29%
Rainfall 0.00 in
Snow Depth Not available.
UV 8 out of 12
Pollen 7.00 out of 12
Air Quality Not available.
Flu Activity Not available.
METAR KJKL 281853Z AUTO 34007G15KT 310V020 10SM CLR 02/M13 A3019 RMK AO2 SLP234 T00221133

More Conditions Fewer Conditions

Pressure 30.22 in
Visibility 10.0 miles
Clouds Clear
Windchill 40 °F
Dew Point 10 °F
Humidity 29%
Rainfall 0.00 in
Snow Depth Not available.
UV 8 out of 12
Pollen 7.00 out of 12
Air Quality Not available.
Flu Activity Not available.
METAR KJKL 281853Z AUTO 34007G15KT 310V020 10SM CLR 02/M13 A3019 RMK AO2 SLP234 T00221133

More Conditions Fewer Conditions

10-Day Weather Forecast

Almanac

Astronomy

Mar. 28, 2015 Rise Set
Actual Time
Civil Twilight
Nautical Twilight
Astronomical Twilight
Moon
Length of Visible Light
Length of Day
Tomorrow will be .
, % of the Moon is Illuminated

Today's Extremes

State Highs State Lows

Community

WunderPhotos

Upload Photos

1,809,076 photos uploaded!

WunderBlogs® & News

Nearby

Air Quality

  Air Quality AQ Index Pollutant
Not available.

Snow Depth

Station Depth Elevation

Earthquake Activity

City Distance Mag. Time & Date
Minimum magnitude displayed is 2.5.

Coastal Water Temperatures

Place Temperature

Stations

Nearby Weather Stations

Station Location Temp. Windchill Dew Point Humidity Wind Precip. Elev Updated Type